Latest Weather Observations for Ballarat

IDV60801

Issued at 4:32 pm EDT Tuesday 23 October 2018 (issued every 10 minutes, with the page automatically refreshed every 10 minutes)

About weather observations | Map of weather stations | Latest weather observations for VIC | Other Formats
Station Details ID: 089002 Name: BALLARAT AERODROME Lat: -37.51 Lon: 143.79 Height: 435.2 m
Data from the previous 72 hours. | See also: Recent months at Ballarat
Date/Time
EDT
Temp
°C
App
Temp
°C
Dew
Point
°C
Rel
Hum
%
Delta-T
°C
Wind Press
QNH
hPa
Press
MSL
hPa
Rain since
9am
mm
Dir  Spd
km/h
Gust
km/h
Spd
kts
Gust
kts
23/04:30pm 12.9 8.2 6.0 63 3.3 SSW 20 30 11 16 1015.9 1015.7 0.0
23/04:00pm 13.9 9.4 6.0 59 3.8 SW 19 26 10 14 1015.4 1015.3 0.0
23/03:30pm 14.3 9.3 6.6 60 3.8 SW 22 35 12 19 1015.1 1015.0 0.0
23/03:00pm 15.0 9.4 5.2 52 4.7 WSW 24 32 13 17 1014.9 1014.8 0.0
23/02:30pm 15.2 10.8 6.7 57 4.2 SW 19 30 10 16 1015.0 1014.9 0.0
23/02:00pm 14.9 9.9 4.6 50 4.9 WSW 20 32 11 17 1014.8 1014.7 0.0
23/01:30pm 15.3 9.8 4.1 47 5.3 SW 22 35 12 19 1014.8 1014.7 0.0
23/01:00pm 16.1 11.2 5.1 48 5.3 SW 20 33 11 18 1014.7 1014.6 0.0
23/12:30pm 14.8 8.6 2.4 43 5.6 SW 24 39 13 21 1014.7 1014.6 0.0
23/12:00pm 14.7 8.5 1.9 42 5.8 WSW 24 33 13 18 1014.7 1014.6 0.0
23/11:30am 14.4 9.8 6.7 60 3.8 SW 20 30 11 16 1014.5 1014.4 0.0
23/11:00am 13.5 8.9 5.7 59 3.8 SW 19 32 10 17 1014.4 1014.3 0.0
23/10:30am 12.1 7.5 6.6 69 2.7 SW 20 28 11 15 1014.5 1014.4 0.0
23/10:00am 12.0 7.7 7.7 75 2.1 SW 20 30 11 16 1014.2 1014.1 0.0
23/09:30am 11.2 6.9 7.9 80 1.6 SW 20 30 11 16 1014.1 1014.0 0.0
23/09:00am 10.8 8.5 10.5 98 0.2 SW 13 19 7 10 1014.0 1013.9 0.0
23/08:43am 10.7 9.2 10.5 99 0.1 SSW 9 13 5 7 1013.9 1013.7 0.0
23/08:30am 10.5 8.2 10.3 99 0.1 SSW 13 20 7 11 1013.6 1013.4 0.0
23/08:00am 10.2 8.2 10.1 99 0.1 SW 11 17 6 9 1013.3 1013.1 0.0
23/07:48am 10.2 7.8 10.1 99 0.1 SW 13 19 7 10 1013.3 1013.1 0.0
23/07:30am 10.2 7.8 10.1 99 0.1 S 13 17 7 9 1012.4 1012.3 0.0
23/07:00am 10.0 7.2 9.9 99 0.1 SE 15 19 8 10 1011.4 1011.2 0.0
23/06:30am 10.0 7.6 9.9 99 0.1 S 13 17 7 9 1012.1 1012.0 0.0
23/06:00am 9.9 7.8 9.8 99 0.1 S 11 19 6 10 1012.0 1011.8 0.0
23/05:30am 10.0 7.9 9.9 99 0.1 SSW 11 15 6 8 1011.9 1011.7 0.0
23/05:00am 10.1 7.2 9.5 96 0.3 SW 15 20 8 11 1011.8 1011.6 0.0
23/04:30am 10.7 7.7 7.8 82 1.4 SE 13 15 7 8 1010.4 1010.3 0.0
23/04:00am 10.8 8.4 8.7 87 1.1 SE 11 15 6 8 1010.6 1010.5 0.0
23/03:30am 10.5 8.1 9.9 96 0.3 SE 13 15 7 8 1011.0 1010.8 0.0
23/03:00am 10.2 8.8 9.4 95 0.4 S 7 11 4 6 1011.5 1011.3 0.0
23/02:30am 10.4 9.0 9.5 94 0.5 S 7 11 4 6 1011.9 1011.7 0.0
23/02:00am 10.6 8.6 8.7 88 1.0 SW 9 17 5 9 1012.3 1012.2 0.0
23/01:30am 11.1 9.5 8.7 85 1.2 SSW 7 11 4 6 1012.0 1011.8 0.0
23/01:00am 10.3 8.3 8.6 89 0.9 SE 9 15 5 8 1012.0 1011.8 0.0
23/12:30am 10.9 8.6 9.0 88 1.0 SSE 11 15 6 8 1012.5 1012.4 0.0
23/12:00am 10.9 8.1 10.1 95 0.4 ESE 15 19 8 10 1012.3 1012.2 0.0
 
Date/Time
EDT
Temp
°C
App
Temp
°C
Dew
Point
°C
Rel
Hum
%
Delta-T
°C
Wind Press
QNH
hPa
Press
MSL
hPa
Rain since
9am
mm
Dir  Spd
km/h
Gust
km/h
Spd
kts
Gust
kts
22/11:30pm 10.3 8.5 8.1 86 1.1 SSE 7 11 4 6 1013.3 1013.1 0.0
22/11:00pm 11.6 9.1 8.3 80 1.7 S 11 17 6 9 1013.4 1013.2 0.0
22/10:30pm 12.6 7.9 7.7 72 2.5 S 22 30 12 16 1012.5 1012.4 0.0
22/10:00pm 16.0 11.7 7.2 56 4.5 SW 19 24 10 13 1012.0 1011.8 0.0
22/09:30pm 18.4 13.6 2.7 35 7.4 WSW 17 22 9 12 1011.6 1011.4 0.0
22/09:00pm 20.0 13.7 1.4 29 8.7 NNE 24 33 13 18 1010.7 1010.6 0.0
22/08:30pm 19.6 14.4 2.5 32 8.1 NNE 19 24 10 13 1010.4 1010.3 0.0
22/08:00pm 19.5 14.7 2.8 33 8.0 NNE 17 20 9 11 1010.4 1010.3 0.0
22/07:30pm 18.5 13.9 3.9 38 7.1 N 17 19 9 10 1010.2 1010.1 0.0
22/07:00pm 20.4 15.4 3.6 33 8.2 N 19 24 10 13 1010.1 1010.0 0.0
22/06:30pm 22.9 17.4 3.9 29 9.5 N 22 30 12 16 1010.0 1009.8 0.0
22/06:00pm 23.6 16.7 2.4 25 10.3 N 28 39 15 21 1010.0 1009.8 0.0
22/05:30pm 24.3 16.6 2.5 24 10.7 NNW 32 41 17 22 1010.0 1009.8 0.0
22/05:00pm 25.1 16.9 2.5 23 11.2 NNW 35 46 19 25 1010.1 1010.0 0.0
22/04:30pm 25.4 17.4 4.0 25 10.9 NNW 35 52 19 28 1010.4 1010.3 0.0
22/04:00pm 25.0 16.3 1.8 22 11.3 NNW 37 50 20 27 1010.4 1010.3 0.0
22/03:30pm 24.8 17.5 4.5 27 10.4 NNW 32 43 17 23 1010.9 1010.7 0.0
22/03:25pm 23.8 16.3 3.7 27 10.0 N 32 41 17 22 1011.0 1010.8 0.0
22/03:00pm 23.8 15.6 4.7 29 9.7 NNE 37 50 20 27 1011.4 1011.2 0.0
22/02:30pm 22.1 14.6 4.7 32 8.8 N 33 44 18 24 1011.9 1011.7 0.0
22/02:00pm 21.6 14.2 5.1 34 8.3 N 33 46 18 25 1012.6 1012.5 0.0
22/01:30pm 21.9 14.8 6.2 36 8.1 N 33 46 18 25 1013.0 1012.9 0.0
22/01:00pm 21.3 14.6 7.2 40 7.4 N 32 43 17 23 1013.4 1013.2 0.0
22/12:30pm 19.5 12.3 5.9 41 6.9 N 33 46 18 25 1013.7 1013.5 0.0
22/12:00pm 18.7 11.2 6.2 44 6.3 N 35 44 19 24 1014.1 1014.0 0.0
22/11:30am 18.4 11.3 6.3 45 6.1 N 33 44 18 24 1014.6 1014.5 0.0
22/11:00am 17.3 10.1 5.9 47 5.7 N 33 48 18 26 1014.8 1014.7 0.0
22/10:58am 17.7 11.0 8.0 53 5.1 N 33 52 18 28 1014.8 1014.7 0.0
22/10:30am 16.3 8.9 6.7 53 4.8 N 35 43 19 23 1014.7 1014.6 0.0
22/10:00am 15.5 8.1 6.8 56 4.4 N 35 43 19 23 1014.8 1014.7 0.0
22/09:30am 14.8 8.2 7.6 62 3.7 NNE 32 41 17 22 1015.0 1014.9 0.0
22/09:00am 13.6 7.1 8.2 70 2.7 NNE 32 41 17 22 1015.1 1015.0 0.0
22/08:30am 12.0 5.8 7.7 75 2.1 N 30 39 16 21 1014.8 1014.7 0.0
22/08:00am 10.8 4.9 7.5 80 1.6 NNE 28 35 15 19 1014.7 1014.6 0.0
22/07:30am 9.7 4.6 7.8 88 0.9 NNE 24 32 13 17 1014.5 1014.4 0.0
22/07:00am 8.5 4.7 7.4 93 0.5 NNE 17 26 9 14 1014.4 1014.3 0.0
22/06:30am 7.8 3.6 7.5 98 0.1 N 19 24 10 13 1014.4 1014.3 0.0
22/06:00am 7.3 4.1 7.0 98 0.1 N 13 20 7 11 1014.4 1014.3 0.0
22/05:30am 7.3 3.0 7.0 98 0.1 N 19 20 10 11 1014.5 1014.4 0.0
22/05:00am 6.9 2.9 6.6 98 0.1 NNE 17 20 9 11 1014.6 1014.5 0.0
22/04:30am 6.8 3.1 6.5 98 0.1 N 15 17 8 9 1014.6 1014.5 0.0
22/04:00am 5.5 2.3 5.2 98 0.1 N 11 13 6 7 1014.7 1014.6 0.0
22/03:30am 5.7 3.0 5.6 99 0.0 NNE 9 13 5 7 1014.7 1014.6 0.0
22/03:00am 6.3 2.6 6.2 99 0.0 N 15 17 8 9 1014.7 1014.6 0.0
22/02:30am 4.6 0.5 4.5 99 0.0 N 15 17 8 9 1014.9 1014.8 0.0
22/02:00am 6.4 4.2 6.1 98 0.1 NNW 7 9 4 5 1014.9 1014.8 0.0
22/01:30am 6.6 4.0 6.3 98 0.1 NE 9 11 5 6 1015.2 1015.1 0.0
22/01:00am 7.5 4.4 7.2 98 0.1 NNE 13 17 7 9 1015.7 1015.5 0.0
22/12:30am 7.2 5.2 6.9 98 0.1 ENE 7 7 4 4 1015.9 1015.7 0.0
22/12:00am 6.8 4.7 6.5 98 0.1 ENE 7 9 4 5 1016.2 1016.1 0.0
 
Date/Time
EDT
Temp
°C
App
Temp
°C
Dew
Point
°C
Rel
Hum
%
Delta-T
°C
Wind Press
QNH
hPa
Press
MSL
hPa
Rain since
9am
mm
Dir  Spd
km/h
Gust
km/h
Spd
kts
Gust
kts
21/11:30pm 7.1 5.2 6.8 98 0.1 E 6 7 3 4 1016.5 1016.4 0.0
21/11:00pm 7.7 5.5 6.2 90 0.7 E 7 9 4 5 1016.8 1016.7 0.0
21/10:30pm 9.1 6.7 7.1 87 1.0 SSE 9 13 5 7 1017.1 1017.0 0.0
21/10:00pm 9.4 7.5 6.7 83 1.3 E 6 7 3 4 1017.0 1016.9 0.0
21/09:30pm 10.0 7.9 6.7 80 1.6 ESE 7 7 4 4 1017.0 1016.9 0.0
21/09:00pm 10.8 8.7 5.6 70 2.5 E 6 7 3 4 1017.0 1016.9 0.0
21/08:30pm 11.5 9.9 6.4 71 2.5 SSE 4 9 2 5 1017.0 1016.9 0.0
21/08:00pm 12.6 11.7 6.2 65 3.1 CALM 0 0 0 0 1017.0 1016.9 0.0
21/07:30pm 15.1 14.0 5.3 52 4.8 CALM 0 0 0 0 1016.8 1016.7 0.0
21/07:00pm 15.3 14.2 5.2 51 4.9 CALM 0 0 0 0 1016.7 1016.6 0.0
21/06:57pm 15.7 14.8 6.2 53 4.7 CALM 0 4 0 2 1016.7 1016.6 0.0
21/06:35pm 16.4 14.3 5.7 49 5.3 WNW 6 11 3 6 1016.7 1016.6 0.0
21/06:30pm 16.1 14.4 5.7 50 5.1 NNW 4 9 2 5 1016.8 1016.7 0.0
21/06:05pm 16.1 13.4 5.4 49 5.2 NW 9 15 5 8 1016.8 1016.7 0.0
21/06:00pm 16.1 13.2 4.8 47 5.5 NW 9 15 5 8 1016.8 1016.7 0.0
21/05:54pm 16.4 13.5 6.5 52 5.0 WNW 11 15 6 8 1016.8 1016.7 0.0
21/05:35pm 16.3 13.5 5.3 48 5.4 NNW 9 15 5 8 1016.8 1016.7 0.0
21/05:30pm 16.0 13.7 5.9 51 5.0 NNW 7 13 4 7 1016.8 1016.7 0.0
21/05:08pm 16.6 14.0 5.9 49 5.3 NW 9 13 5 7 1016.9 1016.8 0.0
21/05:00pm 16.5 14.8 6.1 50 5.2 NNE 4 11 2 6 1017.0 1016.9 0.0
21/04:30pm 15.3 13.2 5.8 53 4.7 NW 6 7 3 4 1017.2 1017.1 0.0
21/04:00pm 15.3 13.3 7.3 59 4.0 S 7 15 4 8 1017.5 1017.4 0.0
21/03:30pm 15.2 12.0 6.7 57 4.2 SSE 13 19 7 10 1017.7 1017.6 0.0
21/03:00pm 14.3 11.4 4.6 52 4.6 SSE 9 13 5 7 1018.4 1018.3 0.0
21/02:30pm 14.5 11.8 5.6 55 4.3 WSW 9 15 5 8 1018.7 1018.6 0.0
21/02:00pm 13.7 10.6 5.6 58 3.9 SSE 11 19 6 10 1019.0 1018.9 0.0
21/01:30pm 14.0 11.6 7.1 63 3.4 S 9 15 5 8 1019.4 1019.3 0.0
21/01:00pm 13.4 10.2 7.0 65 3.2 WSW 13 24 7 13 1019.9 1019.9 0.0
21/12:30pm 12.3 8.6 8.0 75 2.2 WNW 17 24 9 13 1020.2 1020.2 0.0
21/12:00pm 12.2 9.6 7.7 74 2.2 WNW 11 19 6 10 1020.6 1020.5 0.0
21/11:30am 12.0 9.6 7.1 72 2.4 SSW 9 13 5 7 1020.7 1020.6 0.0
21/11:00am 11.2 7.7 7.1 76 2.0 WSW 15 19 8 10 1020.9 1020.8 0.0
21/10:30am 10.5 8.4 8.1 85 1.2 W 9 20 5 11 1020.9 1020.8 0.0
21/10:00am 10.3 7.1 8.6 89 0.9 WSW 15 19 8 10 1020.8 1020.7 0.0
21/09:30am 10.8 8.3 8.2 84 1.3 SW 11 20 6 11 1020.4 1020.4 0.0
21/09:00am 9.1 7.2 9.1 100 0.0 SW 9 13 5 7 1020.3 1020.3 0.0
21/08:30am 8.3 - - - - SW 7 11 4 6 1020.2 1020.2 0.0
21/08:27am 8.1 - - - - SW 9 13 5 7 1020.2 1020.2 0.0
21/08:00am 7.9 - - - - SW 9 13 5 7 1019.9 1019.9 0.0
21/07:49am 7.5 - - - - SW 9 11 5 6 1019.8 1019.7 0.0
21/07:30am 7.3 5.0 7.3 100 0.0 SW 9 11 5 6 1019.7 1019.6 0.0
21/07:00am 7.1 4.7 7.1 100 0.0 SW 9 13 5 7 1019.5 1019.4 0.0
21/06:30am 6.9 4.1 6.9 100 0.0 WSW 11 13 6 7 1019.2 1019.1 0.0
21/06:00am 6.9 4.5 6.9 100 0.0 SW 9 19 5 10 1019.3 1019.2 0.0
21/05:30am 6.8 4.0 6.8 100 0.0 SW 11 17 6 9 1019.2 1019.1 0.0
21/05:08am 6.6 3.7 6.6 100 0.0 WSW 11 17 6 9 1019.2 1019.1 0.0
21/05:00am 6.3 3.4 6.3 100 0.0 WSW 11 13 6 7 1019.2 1019.1 0.0
21/04:30am 5.7 4.7 5.7 100 0.0 CALM 0 0 0 0 1019.2 1019.1 0.0
21/04:00am 4.6 3.4 4.6 100 0.0 CALM 0 0 0 0 1019.3 1019.2 0.0
21/03:49am 3.6 2.2 3.6 100 0.0 CALM 0 0 0 0 1019.3 1019.2 0.0
21/03:44am 3.5 2.1 3.5 100 0.0 CALM 0 0 0 0 1019.3 1019.2 0.0
21/03:30am 3.7 2.3 3.7 100 0.0 CALM 0 0 0 0 1019.3 1019.2 0.0
21/03:20am 3.3 1.1 3.3 100 0.0 SSW 4 7 2 4 1019.3 1019.2 0.0
21/03:00am 6.3 4.1 6.3 100 0.0 SSW 7 9 4 5 1019.4 1019.3 0.0
21/02:30am 6.6 4.1 6.6 100 0.0 SW 9 13 5 7 1019.5 1019.4 0.0
21/02:00am 6.1 3.9 6.0 99 0.0 SSW 7 9 4 5 1019.8 1019.7 0.0
21/01:30am 6.5 4.3 6.4 99 0.0 SSW 7 11 4 6 1020.0 1020.0 0.0
21/01:00am 6.1 3.4 5.8 98 0.1 S 9 11 5 6 1020.2 1020.2 0.0
21/12:30am 6.2 4.0 6.1 99 0.0 SSW 7 9 4 5 1020.4 1020.4 0.0
21/12:00am 5.1 2.8 4.8 98 0.1 S 6 7 3 4 1020.7 1020.6 0.0
 
Date/Time
EDT
Temp
°C
App
Temp
°C
Dew
Point
°C
Rel
Hum
%
Delta-T
°C
Wind Press
QNH
hPa
Press
MSL
hPa
Rain since
9am
mm
Dir  Spd
km/h
Gust
km/h
Spd
kts
Gust
kts
20/11:30pm 6.2 3.9 5.9 98 0.1 S 7 9 4 5 1020.6 1020.5 0.0
20/11:00pm 5.6 3.4 5.3 98 0.1 SSE 6 9 3 5 1020.7 1020.6 0.0
20/10:30pm 6.2 3.7 4.8 91 0.6 S 7 11 4 6 1020.8 1020.7 0.0
20/10:00pm 6.3 3.3 4.0 85 1.0 S 9 13 5 7 1020.6 1020.5 0.0
20/09:30pm 7.8 4.9 4.4 79 1.5 SSW 9 13 5 7 1020.2 1020.2 0.0
20/09:00pm 8.0 4.6 4.0 76 1.8 SSW 11 13 6 7 1019.8 1019.7 0.0
20/08:30pm 8.5 4.7 3.8 72 2.1 SSW 13 17 7 9 1019.3 1019.2 0.0
20/08:00pm 9.2 4.7 4.0 70 2.3 SSW 17 22 9 12 1018.8 1018.7 0.0
20/07:30pm 10.2 5.3 3.9 65 2.8 SSW 19 32 10 17 1018.4 1018.3 0.0
20/07:00pm 10.6 4.9 2.9 59 3.4 SW 22 32 12 17 1017.6 1017.5 0.0
20/06:30pm 11.4 5.9 3.9 60 3.4 SSW 22 32 12 17 1017.1 1017.0 0.0
20/06:00pm 13.0 7.5 4.2 55 4.1 SW 22 35 12 19 1016.7 1016.6 0.0
20/05:30pm 12.5 7.7 5.7 63 3.3 SSW 20 35 11 19 1016.4 1016.3 0.0
20/05:00pm 11.6 6.4 7.1 74 2.2 SSW 24 35 13 19 1016.0 1015.9 0.0

Other Formats:

Comma delimited format used in spreadsheet applications
http://www.bom.gov.au/fwo/IDV60801/IDV60801.94852.axf

JavaScript Object Notation format (JSON) in row-major order
http://www.bom.gov.au/fwo/IDV60801/IDV60801.94852.json